Time;durP1;ratioP1;P1;durP2;ratioP2;P2;SDS_P1;SDS_P2;PMS_P1;PMS_P2;Temp;Humidity;BMP_temperature;BMP_pressure;BME280_temperature;BME280_humidity;BME280_pressure;Samples;Min_cycle;Max_cycle;Signal;HPM_P1;HPM_P2
2022/06/02 00:00:15;;;;;;;1.45;1.30;;;12.50;79.30;;;;;;594595;238;26605;-68
2022/06/02 00:02:49;;;;;;;1.30;1.30;;;12.50;79.40;;;;;;604483;238;26571;-68
2022/06/02 00:05:19;;;;;;;1.30;1.30;;;12.60;79.60;;;;;;603506;238;26614;-68
2022/06/02 00:07:50;;;;;;;1.50;1.40;;;12.50;79.60;;;;;;604082;238;26555;-68
2022/06/02 00:10:27;;;;;;;1.62;1.50;;;12.50;79.70;;;;;;605002;235;26917;-68
2022/06/02 00:12:57;;;;;;;1.60;1.50;;;12.50;80.00;;;;;;605220;237;26656;-68
2022/06/02 00:15:26;;;;;;;1.55;1.50;;;12.50;80.10;;;;;;605022;233;26590;-68
2022/06/02 00:17:56;;;;;;;1.30;1.30;;;12.50;80.00;;;;;;605264;237;26827;-68
2022/06/02 00:20:27;;;;;;;1.62;1.52;;;12.50;80.20;;;;;;604987;238;26877;-69
2022/06/02 00:22:55;;;;;;;1.27;1.23;;;12.50;80.30;;;;;;605063;238;26617;-67
2022/06/02 00:25:26;;;;;;;1.77;1.40;;;12.50;81.00;;;;;;603529;238;26624;-69
2022/06/02 00:28:13;;;;;;;1.87;1.48;;;12.50;80.30;;;;;;604960;238;26546;-68
2022/06/02 00:30:42;;;;;;;1.95;1.75;;;12.50;80.40;;;;;;604666;238;26569;-67
2022/06/02 00:33:40;;;;;;;1.30;1.30;;;12.50;80.40;;;;;;605026;238;26550;-66
2022/06/02 00:36:08;;;;;;;2.85;1.42;;;12.50;79.90;;;;;;604546;238;26558;-66
2022/06/02 00:38:37;;;;;;;1.90;1.30;;;12.40;81.00;;;;;;604811;238;26566;-66
2022/06/02 00:41:22;;;;;;;1.60;1.50;;;12.40;80.40;;;;;;604845;238;26567;-66
2022/06/02 00:43:57;;;;;;;1.25;1.25;;;12.40;80.40;;;;;;604796;238;26587;-66
2022/06/02 00:46:26;;;;;;;1.42;1.33;;;12.30;80.40;;;;;;604228;238;26846;-66
2022/06/02 00:49:09;;;;;;;1.83;1.73;;;12.30;80.30;;;;;;603383;238;26805;-66
2022/06/02 00:51:54;;;;;;;1.50;1.40;;;12.20;79.40;;;;;;604212;238;26615;-66
2022/06/02 00:59:46;;;;;;;1.40;1.30;;;12.10;80.10;;;;;;604415;238;26831;-66
2022/06/02 01:02:13;;;;;;;1.23;1.23;;;12.10;80.00;;;;;;603949;238;26796;-66
2022/06/02 01:04:40;;;;;;;1.55;1.45;;;12.00;80.00;;;;;;604588;238;26615;-66
2022/06/02 01:07:25;;;;;;;1.40;1.30;;;11.90;80.20;;;;;;604496;237;26846;-66
2022/06/02 01:10:00;;;;;;;1.27;1.27;;;11.90;80.60;;;;;;603075;238;26612;-66
2022/06/02 01:12:42;;;;;;;1.25;1.23;;;11.80;80.70;;;;;;604030;238;26845;-66
2022/06/02 01:15:15;;;;;;;1.10;1.10;;;11.80;81.00;;;;;;604296;238;27166;-66
2022/06/02 01:17:48;;;;;;;1.40;1.40;;;11.70;81.20;;;;;;603764;238;26587;-66
2022/06/02 01:20:33;;;;;;;1.65;1.55;;;11.70;81.50;;;;;;604791;235;26584;-66
2022/06/02 01:23:19;;;;;;;2.55;1.33;;;11.60;81.80;;;;;;604620;237;26591;-66
2022/06/02 01:25:52;;;;;;;1.42;1.40;;;11.60;81.80;;;;;;603810;237;26845;-66
2022/06/02 01:28:37;;;;;;;1.10;1.10;;;11.50;82.40;;;;;;605236;237;26592;-67
2022/06/02 01:31:07;;;;;;;1.45;1.42;;;11.40;83.40;;;;;;595483;237;26840;-66
2022/06/02 01:33:48;;;;;;;1.23;1.12;;;11.40;83.50;;;;;;604593;238;26864;-66
2022/06/02 01:36:26;;;;;;;1.45;1.35;;;11.30;84.20;;;;;;605507;236;26619;-66
2022/06/02 01:39:08;;;;;;;1.20;1.20;;;11.20;84.80;;;;;;604888;238;26602;-66
2022/06/02 01:41:57;;;;;;;3.20;1.55;;;11.10;86.10;;;;;;600536;238;26566;-66
2022/06/02 01:44:23;;;;;;;3.17;1.40;;;11.10;86.10;;;;;;605027;238;26590;-66
2022/06/02 01:47:09;;;;;;;1.40;1.30;;;11.10;86.50;;;;;;604053;238;26591;-66
2022/06/02 01:49:48;;;;;;;1.30;1.30;;;11.10;87.50;;;;;;601186;237;26561;-66
2022/06/02 01:52:22;;;;;;;1.23;1.23;;;11.00;87.60;;;;;;605133;238;26570;-66
2022/06/02 01:55:04;;;;;;;1.20;1.20;;;10.90;88.10;;;;;;604203;238;26610;-67
2022/06/02 01:57:38;;;;;;;1.10;1.10;;;10.90;88.70;;;;;;603346;238;26590;-66
2022/06/02 02:00:12;;;;;;;1.20;1.20;;;10.90;89.90;;;;;;603326;238;26873;-66
2022/06/02 02:02:52;;;;;;;1.95;1.30;;;10.80;90.20;;;;;;604525;238;26603;-66
2022/06/02 02:05:23;;;;;;;1.95;1.52;;;10.80;90.30;;;;;;604641;237;26602;-66
2022/06/02 02:07:58;;;;;;;1.20;1.20;;;10.80;90.80;;;;;;604137;238;26605;-66
2022/06/02 02:10:31;;;;;;;1.10;1.10;;;10.80;91.00;;;;;;603947;238;27339;-66
2022/06/02 02:12:58;;;;;;;1.20;1.20;;;10.70;90.90;;;;;;603577;234;26597;-66
2022/06/02 02:15:27;;;;;;;1.45;1.40;;;10.70;91.20;;;;;;603900;234;26860;-66
2022/06/02 02:18:00;;;;;;;1.00;1.00;;;10.70;91.40;;;;;;603911;238;26811;-66
2022/06/02 02:20:29;;;;;;;1.50;1.40;;;10.70;91.40;;;;;;603569;234;26594;-65
2022/06/02 02:23:00;;;;;;;1.10;1.10;;;10.60;91.40;;;;;;604343;238;26559;-65
2022/06/02 02:25:27;;;;;;;1.20;1.10;;;10.60;91.50;;;;;;604263;238;26615;-66
2022/06/02 02:30:40;;;;;;;2.15;1.30;;;10.60;91.70;;;;;;604594;238;27101;-66
2022/06/02 02:33:29;;;;;;;1.10;1.10;;;10.50;91.80;;;;;;605481;235;26818;-66
2022/06/02 02:36:01;;;;;;;1.23;1.23;;;10.60;91.70;;;;;;605606;237;26602;-66
2022/06/02 02:38:29;;;;;;;1.20;1.20;;;10.60;91.60;;;;;;605079;237;26605;-66
2022/06/02 02:40:57;;;;;;;1.20;1.20;;;10.60;91.60;;;;;;604814;237;26575;-66
2022/06/02 02:43:25;;;;;;;1.77;1.20;;;10.60;91.60;;;;;;604984;238;26648;-66
2022/06/02 02:45:59;;;;;;;1.20;1.20;;;10.50;91.70;;;;;;604789;238;26697;-66
2022/06/02 02:48:36;;;;;;;1.40;1.10;;;10.50;91.70;;;;;;604962;238;26863;-66
2022/06/02 02:51:30;;;;;;;1.40;1.25;;;10.50;91.70;;;;;;604961;237;26582;-66
2022/06/02 02:53:58;;;;;;;1.27;1.27;;;10.40;91.90;;;;;;604838;237;26845;-66
2022/06/02 02:56:32;;;;;;;1.27;1.27;;;10.40;91.90;;;;;;604433;238;26590;-66
2022/06/02 02:59:01;;;;;;;0.88;0.88;;;10.40;92.00;;;;;;604628;237;26587;-66
2022/06/02 03:02:01;;;;;;;1.20;1.20;;;10.40;92.20;;;;;;604689;238;26574;-67
2022/06/02 03:04:34;;;;;;;1.20;1.20;;;10.30;92.30;;;;;;592805;234;26616;-66
2022/06/02 03:07:02;;;;;;;2.42;1.42;;;10.30;92.50;;;;;;604104;238;26598;-65
2022/06/02 03:09:41;;;;;;;1.08;1.08;;;10.30;92.40;;;;;;604555;238;26608;-64
2022/06/02 03:12:09;;;;;;;1.20;1.20;;;10.30;92.40;;;;;;604561;237;26578;-64
2022/06/02 03:14:47;;;;;;;1.20;1.10;;;10.30;92.40;;;;;;603544;234;26829;-64
2022/06/02 03:17:32;;;;;;;1.40;1.30;;;10.30;92.60;;;;;;604128;238;26829;-64
2022/06/02 03:20:16;;;;;;;1.12;1.10;;;10.30;92.80;;;;;;600311;238;26609;-64
2022/06/02 03:23:07;;;;;;;1.15;1.15;;;10.30;92.70;;;;;;604496;237;26546;-64
2022/06/02 03:25:35;;;;;;;1.08;1.08;;;10.20;92.80;;;;;;603911;238;27263;-64
2022/06/02 03:28:09;;;;;;;1.10;1.10;;;10.20;92.80;;;;;;604424;238;26590;-65
2022/06/02 03:30:40;;;;;;;1.10;1.10;;;10.20;93.00;;;;;;604505;238;26575;-64
2022/06/02 03:33:25;;;;;;;1.05;1.05;;;10.20;93.00;;;;;;604124;238;26586;-64
2022/06/02 03:36:11;;;;;;;0.98;0.98;;;10.20;93.20;;;;;;600388;237;26869;-64
2022/06/02 03:38:51;;;;;;;1.10;1.10;;;10.20;93.30;;;;;;604159;234;26854;-64
2022/06/02 03:41:40;;;;;;;1.02;1.02;;;10.20;93.50;;;;;;604460;238;26577;-64
2022/06/02 03:44:29;;;;;;;1.10;1.10;;;10.30;93.30;;;;;;601341;236;26671;-64
2022/06/02 03:47:07;;;;;;;1.00;1.00;;;10.40;93.10;;;;;;605673;237;26667;-64
2022/06/02 03:49:43;;;;;;;1.08;1.08;;;10.40;93.10;;;;;;604344;237;26596;-64
2022/06/02 03:52:12;;;;;;;1.20;1.10;;;10.50;93.20;;;;;;605361;236;26823;-64
2022/06/02 03:54:46;;;;;;;0.90;0.90;;;10.60;93.10;;;;;;604050;234;26906;-64
2022/06/02 03:57:37;;;;;;;1.10;1.10;;;10.60;92.80;;;;;;604586;238;26642;-64
2022/06/02 04:00:08;;;;;;;1.27;1.20;;;10.70;92.60;;;;;;595076;237;26884;-64
2022/06/02 04:02:46;;;;;;;1.00;1.00;;;10.80;92.30;;;;;;603964;235;26603;-64
2022/06/02 04:05:18;;;;;;;3.08;1.35;;;10.90;92.10;;;;;;603795;235;26878;-64
2022/06/02 04:08:05;;;;;;;1.83;1.42;;;11.00;92.00;;;;;;608882;235;26974;-64
2022/06/02 04:10:37;;;;;;;2.65;1.50;;;11.10;91.80;;;;;;602060;236;26612;-65
2022/06/02 04:15:55;;;;;;;1.23;1.12;;;11.10;91.50;;;;;;604827;235;26634;-65
2022/06/02 04:18:34;;;;;;;1.73;1.25;;;11.20;91.30;;;;;;602567;238;26598;-65
2022/06/02 04:21:10;;;;;;;1.73;1.52;;;11.30;91.20;;;;;;602538;235;26649;-65
2022/06/02 04:23:54;;;;;;;2.45;1.27;;;11.40;90.80;;;;;;608269;235;26636;-65
2022/06/02 04:26:29;;;;;;;2.47;1.08;;;11.50;90.70;;;;;;596417;235;26670;-65
2022/06/02 04:29:02;;;;;;;2.60;1.05;;;11.50;90.70;;;;;;610733;234;26576;-65
2022/06/02 04:31:45;;;;;;;1.17;1.17;;;11.50;90.60;;;;;;602247;236;26630;-65
2022/06/02 04:34:29;;;;;;;1.80;1.02;;;11.50;90.60;;;;;;605936;236;26686;-65
2022/06/02 04:37:04;;;;;;;1.40;1.30;;;11.80;90.30;;;;;;601407;237;26659;-65
2022/06/02 04:39:33;;;;;;;1.40;1.20;;;11.90;90.10;;;;;;602981;238;26593;-64
2022/06/02 04:42:03;;;;;;;1.15;1.15;;;11.80;90.00;;;;;;601701;237;26663;-64
2022/06/02 04:44:34;;;;;;;1.02;1.02;;;11.80;90.00;;;;;;602728;238;26836;-65
2022/06/02 04:47:03;;;;;;;1.02;1.02;;;11.80;90.10;;;;;;603807;235;26602;-65
2022/06/02 04:49:31;;;;;;;1.12;1.12;;;11.80;90.10;;;;;;601312;238;27342;-65
2022/06/02 04:52:01;;;;;;;1.00;1.00;;;11.80;90.00;;;;;;603059;238;26585;-65
2022/06/02 04:54:31;;;;;;;1.48;1.10;;;11.90;89.60;;;;;;602535;234;26621;-65
2022/06/02 04:57:12;;;;;;;1.23;1.12;;;12.10;89.00;;;;;;609176;235;26876;-65
2022/06/02 04:59:40;;;;;;;1.00;1.00;;;12.10;88.90;;;;;;610838;234;26585;-65
2022/06/02 05:02:32;;;;;;;1.00;1.00;;;12.20;88.80;;;;;;601695;237;26656;-65
2022/06/02 05:05:18;;;;;;;1.30;1.10;;;12.30;88.30;;;;;;597815;239;26696;-65
2022/06/02 05:07:48;;;;;;;1.25;1.15;;;12.30;88.00;;;;;;610620;234;26853;-65
2022/06/02 05:10:16;;;;;;;2.08;1.10;;;12.30;88.00;;;;;;609384;235;26603;-65
2022/06/02 05:13:06;;;;;;;1.98;1.12;;;12.20;88.10;;;;;;610146;235;26613;-65
2022/06/02 05:15:59;;;;;;;0.90;0.90;;;12.40;88.00;;;;;;607410;235;26630;-65
2022/06/02 05:18:34;;;;;;;1.10;1.10;;;12.40;87.70;;;;;;607493;234;26571;-65
2022/06/02 05:21:08;;;;;;;1.42;1.00;;;12.50;87.10;;;;;;609607;235;27247;-63
2022/06/02 05:23:57;;;;;;;1.37;1.27;;;12.60;86.80;;;;;;609371;235;26582;-63
2022/06/02 05:26:43;;;;;;;4.78;1.30;;;12.50;87.20;;;;;;599641;235;26682;-63
2022/06/02 05:29:22;;;;;;;1.67;1.02;;;12.70;86.80;;;;;;599661;238;26826;-63
2022/06/02 05:32:15;;;;;;;2.45;1.20;;;12.70;86.60;;;;;;603496;235;26578;-64
2022/06/02 05:34:51;;;;;;;8.90;1.40;;;12.80;86.00;;;;;;600414;238;26618;-63
2022/06/02 05:37:20;;;;;;;2.20;1.12;;;12.80;86.30;;;;;;601886;237;26629;-64
2022/06/02 05:40:02;;;;;;;1.12;1.00;;;13.00;85.30;;;;;;605663;235;26665;-63
2022/06/02 05:42:45;;;;;;;1.00;1.00;;;13.00;85.40;;;;;;601903;236;26658;-63
2022/06/02 05:45:22;;;;;;;1.35;1.25;;;12.80;85.50;;;;;;595447;237;26641;-63
2022/06/02 05:47:58;;;;;;;5.90;1.33;;;12.60;86.70;;;;;;603772;235;26587;-63
2022/06/02 05:50:39;;;;;;;4.35;1.23;;;12.60;86.70;;;;;;602778;235;26829;-63
2022/06/02 05:53:09;;;;;;;1.30;1.20;;;12.60;87.00;;;;;;603371;237;26584;-63
2022/06/02 05:55:52;;;;;;;1.15;1.10;;;12.60;87.30;;;;;;608915;236;26626;-63
2022/06/02 05:58:25;;;;;;;6.22;1.35;;;12.90;86.70;;;;;;605847;234;26549;-63
2022/06/02 06:01:01;;;;;;;1.30;1.20;;;13.00;86.00;;;;;;607266;236;26568;-63
2022/06/02 06:03:36;;;;;;;1.20;1.10;;;12.90;86.40;;;;;;606561;236;26597;-64
2022/06/02 06:06:03;;;;;;;3.67;1.60;;;13.10;85.90;;;;;;605762;234;27012;-70
2022/06/02 06:08:33;;;;;;;2.37;1.33;;;13.10;85.80;;;;;;603346;235;26625;-69
2022/06/02 06:11:19;;;;;;;1.35;1.23;;;13.30;85.40;;;;;;604983;235;26553;-69
2022/06/02 06:13:54;;;;;;;6.75;1.45;;;13.00;85.80;;;;;;604656;234;26648;-70
2022/06/02 06:16:21;;;;;;;1.67;1.50;;;13.00;85.70;;;;;;602762;235;26648;-70
2022/06/02 06:19:14;;;;;;;1.62;1.20;;;13.30;84.60;;;;;;603083;238;26584;-69
2022/06/02 06:21:59;;;;;;;1.77;1.62;;;13.30;84.60;;;;;;607517;234;26676;-69
2022/06/02 06:24:44;;;;;;;3.33;1.33;;;13.20;84.60;;;;;;599037;235;26663;-68
2022/06/02 06:27:11;;;;;;;1.62;1.25;;;13.20;84.60;;;;;;606702;236;26568;-70
2022/06/02 06:29:40;;;;;;;1.40;1.30;;;13.60;84.20;;;;;;603289;235;26831;-69
2022/06/02 06:32:14;;;;;;;1.52;1.42;;;13.60;83.20;;;;;;605348;235;26816;-69
2022/06/02 06:34:47;;;;;;;1.90;1.70;;;13.80;83.10;;;;;;601524;236;26605;-69
2022/06/02 06:37:16;;;;;;;1.33;1.23;;;13.40;83.70;;;;;;605510;236;26599;-68
2022/06/02 06:39:53;;;;;;;1.37;1.30;;;13.40;83.70;;;;;;607339;236;26860;-68
2022/06/02 06:42:24;;;;;;;1.77;1.58;;;13.50;83.70;;;;;;604037;236;26582;-69
2022/06/02 06:44:52;;;;;;;2.12;1.40;;;13.40;84.40;;;;;;608140;235;26885;-69
2022/06/02 06:47:29;;;;;;;2.60;1.50;;;13.40;83.80;;;;;;603568;234;26622;-68
2022/06/02 06:50:00;;;;;;;3.87;1.35;;;13.50;84.10;;;;;;606237;236;26588;-69
2022/06/02 06:52:31;;;;;;;2.80;1.80;;;13.90;82.60;;;;;;604770;236;26582;-69
2022/06/02 06:55:03;;;;;;;1.30;1.30;;;14.20;81.30;;;;;;605361;234;26591;-69
2022/06/02 06:57:32;;;;;;;1.80;1.58;;;14.20;81.30;;;;;;605168;236;26594;-65
2022/06/02 07:00:04;;;;;;;1.90;1.23;;;14.30;79.90;;;;;;603029;238;27150;-65
2022/06/02 07:02:47;;;;;;;1.27;1.27;;;14.30;79.60;;;;;;601541;238;26649;-65
2022/06/02 07:05:18;;;;;;;4.03;2.00;;;14.60;79.50;;;;;;605976;236;26601;-66
2022/06/02 07:07:49;;;;;;;1.48;1.37;;;14.80;78.30;;;;;;604527;236;26597;-64
2022/06/02 07:10:17;;;;;;;2.45;1.50;;;14.70;78.10;;;;;;600993;235;27344;-65
2022/06/02 07:13:02;;;;;;;1.33;1.33;;;15.40;76.10;;;;;;608841;232;26682;-69
2022/06/02 07:15:44;;;;;;;2.87;1.40;;;16.00;73.70;;;;;;599031;238;26678;-68
2022/06/02 07:18:26;;;;;;;1.45;1.30;;;16.00;73.60;;;;;;601495;237;26619;-68
2022/06/02 07:20:57;;;;;;;2.28;1.37;;;15.90;73.90;;;;;;606334;236;26859;-69
2022/06/02 07:23:33;;;;;;;1.50;1.40;;;16.00;73.50;;;;;;604073;237;26840;-68
2022/06/02 07:26:13;;;;;;;1.60;1.50;;;15.70;72.70;;;;;;602158;235;26604;-69
2022/06/02 07:28:59;;;;;;;1.50;1.37;;;15.60;74.10;;;;;;602329;236;26593;-69
2022/06/02 07:31:38;;;;;;;1.23;1.23;;;15.60;73.60;;;;;;601363;236;26591;-68
2022/06/02 07:34:07;;;;;;;3.20;1.30;;;15.90;73.90;;;;;;604180;235;26807;-68
2022/06/02 07:36:57;;;;;;;1.70;1.60;;;16.00;71.70;;;;;;604058;235;26641;-69
2022/06/02 07:39:33;;;;;;;2.60;1.37;;;15.90;70.90;;;;;;601603;239;26603;-69
2022/06/02 07:42:05;;;;;;;1.40;1.30;;;16.00;69.70;;;;;;606109;235;26588;-68
2022/06/02 07:44:48;;;;;;;1.50;1.40;;;15.30;72.20;;;;;;609666;235;26650;-68
2022/06/02 07:47:24;;;;;;;3.20;1.52;;;15.20;71.80;;;;;;608064;235;26660;-68
2022/06/02 07:49:52;;;;;;;1.67;1.30;;;15.10;72.90;;;;;;603825;234;26543;-68
2022/06/02 07:52:24;;;;;;;1.55;1.40;;;14.90;73.60;;;;;;602307;237;26585;-69
2022/06/02 07:54:55;;;;;;;1.42;1.40;;;15.00;72.40;;;;;;604760;235;26622;-69
2022/06/02 07:57:24;;;;;;;8.50;1.37;;;15.10;71.60;;;;;;602639;233;26557;-69
2022/06/02 08:00:09;;;;;;;1.98;1.40;;;15.10;71.60;;;;;;603697;232;26949;-65
2022/06/02 08:02:39;;;;;;;1.40;1.30;;;14.80;72.50;;;;;;599884;238;26651;-67
2022/06/02 08:05:30;;;;;;;2.08;1.40;;;15.20;70.90;;;;;;603444;238;26627;-66
2022/06/02 08:07:59;;;;;;;2.60;1.48;;;15.20;70.90;;;;;;599060;235;26662;-66
2022/06/02 08:10:41;;;;;;;1.45;1.35;;;15.60;69.40;;;;;;612227;235;26638;-69
2022/06/02 08:13:12;;;;;;;1.45;1.35;;;15.60;69.20;;;;;;606963;235;26888;-68
2022/06/02 08:15:42;;;;;;;4.20;1.37;;;15.90;66.50;;;;;;605797;236;26900;-68
2022/06/02 08:18:45;;;;;;;2.53;1.62;;;15.80;61.80;;;;;;610949;235;26860;-69
2022/06/02 08:21:20;;;;;;;2.83;1.20;;;15.80;62.70;;;;;;601439;235;26607;-68
2022/06/02 08:24:08;;;;;;;1.58;1.20;;;15.70;64.00;;;;;;605039;235;26644;-68
2022/06/02 08:26:40;;;;;;;1.45;1.35;;;15.80;62.70;;;;;;602966;235;26664;-68
2022/06/02 08:29:10;;;;;;;1.50;1.40;;;15.80;61.20;;;;;;608427;235;26583;-69
2022/06/02 08:31:56;;;;;;;2.22;1.05;;;16.00;62.20;;;;;;607786;235;26604;-69
2022/06/02 08:34:28;;;;;;;2.83;1.00;;;16.00;62.20;;;;;;601442;235;26859;-68
2022/06/02 08:36:58;;;;;;;1.65;1.35;;;17.00;60.10;;;;;;605386;235;26607;-68
2022/06/02 08:39:30;;;;;;;1.55;1.20;;;17.00;60.10;;;;;;602056;238;26608;-70
2022/06/02 08:41:59;;;;;;;93.32;19.52;;;17.30;58.40;;;;;;602065;239;26593;-70
2022/06/02 08:44:33;;;;;;;115.55;26.08;;;17.30;57.50;;;;;;601002;239;26602;-68
2022/06/02 08:47:13;;;;;;;133.65;25.15;;;16.60;56.90;;;;;;601876;238;26582;-68
2022/06/02 08:49:53;;;;;;;106.15;21.60;;;16.60;56.90;;;;;;601816;237;26589;-68
2022/06/02 08:52:41;;;;;;;60.80;15.15;;;16.60;56.50;;;;;;601851;239;27213;-69
2022/06/02 08:55:34;;;;;;;49.35;11.50;;;16.80;56.50;;;;;;591448;235;26887;-68
2022/06/02 08:58:17;;;;;;;42.40;11.32;;;17.20;56.20;;;;;;609921;235;26805;-69
2022/06/02 09:00:51;;;;;;;28.87;8.43;;;17.50;56.20;;;;;;609380;235;26600;-69
2022/06/02 09:03:23;;;;;;;24.17;6.53;;;17.20;54.30;;;;;;610630;235;26615;-69
2022/06/02 09:06:12;;;;;;;15.35;4.25;;;17.10;54.20;;;;;;609211;235;26615;-69
2022/06/02 09:09:04;;;;;;;7.85;2.87;;;16.60;54.30;;;;;;606870;236;26568;-65
2022/06/02 09:11:44;;;;;;;4.28;2.17;;;16.50;54.90;;;;;;609398;236;26594;-65
2022/06/02 09:14:19;;;;;;;5.68;2.22;;;16.50;55.30;;;;;;609677;236;27346;-65
2022/06/02 09:17:06;;;;;;;10.00;2.67;;;16.60;54.70;;;;;;609647;236;26580;-65
2022/06/02 09:19:56;;;;;;;8.27;2.60;;;16.70;54.50;;;;;;609129;236;26591;-65
2022/06/02 09:22:31;;;;;;;8.07;2.20;;;17.00;54.10;;;;;;607330;235;26818;-65
2022/06/02 09:25:04;;;;;;;5.50;1.98;;;17.10;53.80;;;;;;610408;236;26616;-65
2022/06/02 09:27:42;;;;;;;4.95;2.03;;;16.80;54.20;;;;;;610296;236;26580;-65
2022/06/02 09:30:12;;;;;;;8.00;2.10;;;16.90;54.00;;;;;;609674;236;26878;-65
2022/06/02 09:32:56;;;;;;;3.55;1.75;;;17.30;53.80;;;;;;609925;236;26593;-65
2022/06/02 09:35:38;;;;;;;2.87;1.70;;;17.30;53.30;;;;;;601841;235;26881;-64
2022/06/02 09:38:11;;;;;;;5.07;2.05;;;17.30;53.80;;;;;;610311;236;26591;-65
2022/06/02 09:40:39;;;;;;;1.60;1.30;;;18.00;53.30;;;;;;609192;236;26914;-64
2022/06/02 09:43:13;;;;;;;3.28;1.65;;;17.90;53.10;;;;;;611129;233;26549;-64
2022/06/02 09:45:44;;;;;;;2.97;1.73;;;17.70;53.60;;;;;;610381;235;26647;-64
2022/06/02 09:48:16;;;;;;;5.07;1.90;;;17.90;53.00;;;;;;610995;235;26825;-65
2022/06/02 09:50:58;;;;;;;3.67;1.67;;;18.10;51.90;;;;;;610503;235;26592;-65
2022/06/02 09:53:42;;;;;;;2.00;1.52;;;18.40;51.40;;;;;;609219;235;26656;-65
2022/06/02 09:56:11;;;;;;;1.67;1.48;;;18.10;50.30;;;;;;607081;235;26897;-65
2022/06/02 09:58:49;;;;;;;2.72;1.55;;;18.50;50.10;;;;;;609547;235;26631;-65
2022/06/02 10:01:24;;;;;;;2.62;1.80;;;18.70;50.70;;;;;;610479;235;26584;-65
2022/06/02 10:03:55;;;;;;;2.42;1.60;;;18.70;50.70;;;;;;610154;235;26873;-64
2022/06/02 10:06:47;;;;;;;1.50;1.40;;;18.70;50.40;;;;;;610075;235;26571;-64
2022/06/02 10:09:19;;;;;;;2.40;1.30;;;18.70;50.80;;;;;;607604;234;26832;-65
2022/06/02 10:12:54;;;;;;;2.87;1.50;;;18.70;50.20;;;;;;609357;235;26573;-65
2022/06/02 10:14:41;;;;;;;1.98;1.45;;;18.70;50.20;;;;;;602165;234;26898;-65
2022/06/02 10:17:14;;;;;;;3.67;1.17;;;17.80;51.80;;;;;;609254;235;26595;-66
2022/06/02 10:19:54;;;;;;;1.45;1.35;;;17.50;50.70;;;;;;609453;236;26549;-65
2022/06/02 10:22:25;;;;;;;1.37;1.27;;;17.90;50.70;;;;;;609590;236;26572;-65
2022/06/02 10:24:56;;;;;;;1.00;1.00;;;17.90;50.70;;;;;;609839;236;26619;-65
2022/06/02 10:27:25;;;;;;;2.17;1.20;;;18.20;50.20;;;;;;608949;236;26587;-65
2022/06/02 10:29:56;;;;;;;2.25;1.30;;;18.30;50.30;;;;;;608422;236;26793;-66
2022/06/02 10:32:26;;;;;;;3.20;1.45;;;18.20;49.90;;;;;;608698;236;26580;-65
2022/06/02 10:35:34;;;;;;;1.40;1.25;;;18.10;49.80;;;;;;609370;235;26861;-66
2022/06/02 10:38:13;;;;;;;2.70;1.30;;;18.20;50.40;;;;;;584093;236;26968;-66
2022/06/02 10:40:41;;;;;;;2.60;1.50;;;18.70;49.80;;;;;;610450;236;26588;-66
2022/06/02 10:43:19;;;;;;;1.62;1.42;;;18.60;49.50;;;;;;609525;236;26826;-65
2022/06/02 10:46:07;;;;;;;1.67;1.27;;;19.10;48.60;;;;;;610161;236;26604;-65
2022/06/02 10:48:45;;;;;;;1.42;1.12;;;19.20;48.90;;;;;;604782;236;26648;-66
2022/06/02 10:51:16;;;;;;;2.33;1.40;;;18.60;49.20;;;;;;603033;236;26575;-66
2022/06/02 10:54:08;;;;;;;4.47;2.45;;;18.60;49.20;;;;;;602968;235;26624;-66
2022/06/02 10:56:42;;;;;;;6.75;2.70;;;18.00;50.10;;;;;;594237;237;26858;-65
2022/06/02 10:59:13;;;;;;;3.45;2.08;;;18.10;49.40;;;;;;603532;235;26648;-65
2022/06/02 11:01:52;;;;;;;1.73;1.62;;;18.00;49.00;;;;;;609532;235;26587;-65
2022/06/02 11:04:53;;;;;;;1.90;1.70;;;18.00;48.90;;;;;;607022;235;26629;-64
2022/06/02 11:07:28;;;;;;;6.05;2.25;;;17.70;49.60;;;;;;599357;234;26662;-65
2022/06/02 11:10:17;;;;;;;5.55;2.15;;;17.70;49.60;;;;;;613156;234;27175;-65
2022/06/02 11:13:11;;;;;;;5.53;2.03;;;17.80;50.10;;;;;;613829;234;26551;-65
2022/06/02 11:15:59;;;;;;;4.78;1.98;;;18.20;50.20;;;;;;613312;234;26619;-66
2022/06/02 11:18:29;;;;;;;5.15;2.00;;;18.10;49.90;;;;;;610158;234;26594;-66
2022/06/02 11:21:13;;;;;;;4.15;1.87;;;17.90;48.20;;;;;;612869;234;26605;-66
2022/06/02 11:24:00;;;;;;;3.03;1.70;;;17.80;48.50;;;;;;603542;234;26612;-66
2022/06/02 11:26:39;;;;;;;7.07;1.83;;;18.10;48.80;;;;;;613849;234;26550;-65
2022/06/02 11:29:16;;;;;;;4.85;1.87;;;18.00;48.50;;;;;;613945;234;26789;-64
2022/06/02 11:31:50;;;;;;;5.03;2.05;;;18.00;48.30;;;;;;606984;234;26668;-65
2022/06/02 11:34:21;;;;;;;5.32;2.25;;;18.20;48.40;;;;;;607232;235;26673;-66
2022/06/02 11:37:07;;;;;;;4.97;2.10;;;18.20;48.40;;;;;;602279;236;26633;-66
2022/06/02 11:39:35;;;;;;;4.50;2.00;;;18.40;47.70;;;;;;603783;236;26591;-65
2022/06/02 11:42:05;;;;;;;2.12;1.92;;;18.40;47.20;;;;;;601747;238;26815;-65
2022/06/02 11:44:35;;;;;;;3.85;1.80;;;18.00;47.60;;;;;;606993;235;26808;-65
2022/06/02 11:47:07;;;;;;;1.83;1.60;;;17.80;48.00;;;;;;601316;236;26650;-65
2022/06/02 11:49:54;;;;;;;2.90;2.10;;;18.10;47.50;;;;;;601416;238;26856;-65
2022/06/02 11:52:25;;;;;;;5.35;1.98;;;18.40;46.60;;;;;;603426;237;26593;-64
2022/06/02 11:54:56;;;;;;;2.60;2.00;;;18.40;46.60;;;;;;601215;238;26884;-65
2022/06/02 11:57:35;;;;;;;2.60;1.62;;;18.40;46.10;;;;;;603234;238;26587;-65
2022/06/02 12:00:24;;;;;;;2.62;1.75;;;18.60;45.80;;;;;;605245;236;26671;-65
2022/06/02 12:03:02;;;;;;;1.95;1.58;;;18.60;45.80;;;;;;602120;236;26891;-66
2022/06/02 12:05:33;;;;;;;3.17;1.90;;;18.70;46.30;;;;;;610934;233;26599;-66
2022/06/02 12:08:11;;;;;;;3.72;1.95;;;18.70;45.60;;;;;;606251;235;26566;-65
2022/06/02 12:10:42;;;;;;;3.72;1.80;;;18.80;44.70;;;;;;607918;235;26595;-65
2022/06/02 12:13:26;;;;;;;3.30;1.80;;;19.10;44.20;;;;;;601768;234;26634;-65
2022/06/02 12:15:59;;;;;;;1.90;1.48;;;19.80;44.00;;;;;;602183;235;26629;-65
2022/06/02 12:18:32;;;;;;;1.85;1.35;;;20.50;43.80;;;;;;601816;239;26549;-65
2022/06/02 12:21:10;;;;;;;3.33;1.40;;;20.90;42.20;;;;;;609015;236;26576;-65
2022/06/02 12:24:01;;;;;;;2.70;1.50;;;21.00;42.00;;;;;;602583;238;26614;-65
2022/06/02 12:26:29;;;;;;;1.87;1.45;;;21.00;42.00;;;;;;602973;235;26581;-65
2022/06/02 12:28:59;;;;;;;2.62;1.65;;;20.70;41.20;;;;;;604095;235;26627;-65
2022/06/02 12:31:39;;;;;;;1.80;1.33;;;20.20;42.00;;;;;;607305;235;26630;-65
2022/06/02 12:34:12;;;;;;;2.90;1.58;;;20.60;42.00;;;;;;602858;236;26620;-65
2022/06/02 12:36:54;;;;;;;2.17;1.60;;;20.90;41.90;;;;;;607201;236;26631;-65
2022/06/02 12:39:29;;;;;;;1.80;1.40;;;21.00;41.60;;;;;;609873;235;26586;-65
2022/06/02 12:42:08;;;;;;;1.60;1.50;;;21.00;41.60;;;;;;605685;235;26643;-65
2022/06/02 12:44:44;;;;;;;5.00;1.23;;;21.10;40.90;;;;;;604470;235;26882;-65
2022/06/02 12:47:17;;;;;;;3.92;1.40;;;21.10;40.90;;;;;;602437;236;26599;-65
2022/06/02 12:49:59;;;;;;;1.30;1.20;;;21.60;41.20;;;;;;606475;236;26581;-65
2022/06/02 12:52:34;;;;;;;2.95;1.70;;;22.10;39.70;;;;;;601196;239;26634;-65
2022/06/02 12:55:06;;;;;;;1.70;1.60;;;22.60;39.50;;;;;;603217;238;26625;-66
2022/06/02 12:57:43;;;;;;;2.55;1.37;;;22.60;38.60;;;;;;602040;238;26657;-66
2022/06/02 13:00:17;;;;;;;1.85;1.25;;;22.60;38.60;;;;;;602719;238;26820;-65
2022/06/02 13:03:07;;;;;;;1.65;1.37;;;23.10;38.00;;;;;;601481;238;26830;-65
2022/06/02 13:05:55;;;;;;;1.60;1.40;;;23.00;37.50;;;;;;607875;235;26624;-65
2022/06/02 13:08:46;;;;;;;4.12;1.58;;;23.30;36.90;;;;;;608866;235;26609;-65
2022/06/02 13:11:29;;;;;;;1.15;1.12;;;23.70;37.20;;;;;;595123;237;26594;-65
2022/06/02 13:13:59;;;;;;;1.30;1.20;;;24.80;36.70;;;;;;602912;238;26665;-65
2022/06/02 13:16:42;;;;;;;1.35;1.02;;;22.80;36.40;;;;;;602482;237;26625;-65
2022/06/02 13:19:27;;;;;;;1.77;1.15;;;22.80;36.40;;;;;;612261;234;26621;-65
2022/06/02 13:22:02;;;;;;;1.33;1.10;;;24.90;35.60;;;;;;606651;235;26612;-65
2022/06/02 13:24:39;;;;;;;1.87;1.02;;;24.80;35.50;;;;;;609744;235;26635;-65
2022/06/02 13:27:23;;;;;;;4.15;1.33;;;26.90;34.40;;;;;;603468;236;26594;-65
2022/06/02 13:29:57;;;;;;;1.23;1.08;;;23.80;34.90;;;;;;603697;238;26586;-65
2022/06/02 13:32:31;;;;;;;1.40;1.30;;;23.00;36.20;;;;;;602283;232;26606;-66
2022/06/02 13:35:17;;;;;;;2.25;1.10;;;27.00;33.80;;;;;;606359;235;26627;-65
2022/06/02 13:37:55;;;;;;;1.12;1.02;;;27.00;33.80;;;;;;604927;236;26544;-65
2022/06/02 13:40:23;;;;;;;1.17;1.10;;;32.80;30.40;;;;;;604117;236;26795;-65
2022/06/02 13:43:14;;;;;;;1.10;1.00;;;33.40;27.50;;;;;;604237;236;26583;-65
2022/06/02 13:46:02;;;;;;;1.20;1.20;;;24.60;33.50;;;;;;597460;239;26621;-65